Time;durP1;ratioP1;P1;durP2;ratioP2;P2;SDS_P1;SDS_P2;PMS_P1;PMS_P2;Temp;Humidity;BMP_temperature;BMP_pressure;BME280_temperature;BME280_humidity;BME280_pressure;Samples;Min_cycle;Max_cycle;Signal;HPM_P1;HPM_P2
2022/07/28 00:02:16;;;;;;;4.85;1.50;;;12.40;99.90;;;;;;5074825;28;20045;-82
2022/07/28 00:04:41;;;;;;;3.00;1.45;;;12.30;99.90;;;;;;5058387;28;20048;-83
2022/07/28 00:07:07;;;;;;;5.28;1.52;;;12.30;99.90;;;;;;5074515;28;20412;-83
2022/07/28 00:09:32;;;;;;;2.53;1.27;;;12.50;99.90;;;;;;5074734;28;20369;-81
2022/07/28 00:11:58;;;;;;;2.88;1.40;;;12.20;99.90;;;;;;5074570;28;20055;-81
2022/07/28 00:14:24;;;;;;;5.68;1.50;;;12.20;99.90;;;;;;5075843;28;20059;-82
2022/07/28 00:16:50;;;;;;;5.00;1.52;;;12.10;99.90;;;;;;5075320;28;20094;-81
2022/07/28 00:19:15;;;;;;;2.65;1.60;;;12.10;99.90;;;;;;5041669;28;20044;-83
2022/07/28 00:21:41;;;;;;;3.15;1.45;;;12.60;99.90;;;;;;5075865;28;20485;-82
2022/07/28 00:24:07;;;;;;;3.80;1.50;;;12.10;99.90;;;;;;5075664;28;20073;-82
2022/07/28 00:26:33;;;;;;;2.78;1.45;;;12.10;99.90;;;;;;5075501;28;20458;-83
2022/07/28 00:28:58;;;;;;;4.22;1.48;;;12.10;99.90;;;;;;5075091;28;20040;-82
2022/07/28 00:31:24;;;;;;;3.45;1.67;;;12.00;99.90;;;;;;5074295;28;20040;-84
2022/07/28 00:33:49;;;;;;;3.13;1.50;;;12.00;99.90;;;;;;5074195;28;20041;-82
2022/07/28 00:36:15;;;;;;;3.65;1.23;;;12.00;99.90;;;;;;5057879;28;20055;-81
2022/07/28 00:38:41;;;;;;;3.72;1.60;;;12.00;99.90;;;;;;5074474;28;20059;-82
2022/07/28 00:41:12;;;;;;;2.30;1.52;;;11.90;99.90;;;;;;5073974;28;20485;-83
2022/07/28 00:43:39;;;;;;;3.15;1.50;;;12.00;99.90;;;;;;5074126;28;20040;-81
2022/07/28 00:46:05;;;;;;;2.90;1.40;;;12.10;99.90;;;;;;5075444;28;20113;-82
2022/07/28 00:48:30;;;;;;;2.70;1.45;;;12.00;99.90;;;;;;5075057;28;20044;-82
2022/07/28 00:50:56;;;;;;;2.85;1.40;;;12.00;99.90;;;;;;5057416;28;20401;-81
2022/07/28 00:53:22;;;;;;;4.20;1.13;;;12.00;99.90;;;;;;5074692;28;20040;-82
2022/07/28 00:55:48;;;;;;;4.32;1.58;;;12.00;99.90;;;;;;5058296;28;20059;-83
2022/07/28 00:58:14;;;;;;;1260.93;124.97;;;12.40;99.90;;;;;;5079606;28;20044;-81
2022/07/28 01:00:39;;;;;;;1.85;1.20;;;12.00;99.90;;;;;;5078842;28;20044;-82
2022/07/28 01:03:05;;;;;;;3.45;1.30;;;12.00;99.90;;;;;;5079167;28;20400;-83
2022/07/28 01:06:06;;;;;;;3.33;1.50;;;12.00;99.90;;;;;;5075357;28;20484;-83
2022/07/28 01:08:58;;;;;;;2.65;1.33;;;12.00;99.90;;;;;;5074294;28;20118;-84
2022/07/28 01:12:00;;;;;;;4.28;1.60;;;12.00;99.90;;;;;;5057229;28;20123;-84
2022/07/28 01:14:46;;;;;;;3.55;1.70;;;12.00;99.90;;;;;;5073576;28;20044;-83
2022/07/28 01:17:21;;;;;;;2.72;1.30;;;12.10;99.90;;;;;;5057157;28;20075;-83
2022/07/28 01:20:08;;;;;;;2.60;1.33;;;12.00;99.90;;;;;;5073575;28;20110;-82
2022/07/28 01:22:58;;;;;;;2.65;1.35;;;12.10;99.90;;;;;;5073394;28;20044;-83
2022/07/28 01:25:33;;;;;;;4.07;1.63;;;12.10;99.90;;;;;;5074873;28;20052;-81
2022/07/28 01:28:30;;;;;;;5.10;1.50;;;12.10;99.90;;;;;;5074633;28;20051;-84
2022/07/28 01:31:01;;;;;;;3.92;1.38;;;12.00;99.90;;;;;;5072853;28;20509;-83
2022/07/28 01:33:34;;;;;;;4.63;1.48;;;12.00;99.90;;;;;;5073337;28;20062;-84
2022/07/28 01:36:09;;;;;;;3.53;1.38;;;12.00;99.90;;;;;;5056815;28;20436;-84
2022/07/28 01:38:37;;;;;;;4.93;1.45;;;12.00;99.90;;;;;;5073259;28;20040;-84
2022/07/28 01:41:07;;;;;;;3.42;1.33;;;12.00;99.90;;;;;;5056387;28;20063;-83
2022/07/28 01:43:37;;;;;;;5.97;1.35;;;12.00;99.90;;;;;;5072938;28;20041;-83
2022/07/28 01:46:03;;;;;;;3.03;1.42;;;12.00;99.90;;;;;;5073057;28;20504;-84
2022/07/28 01:48:30;;;;;;;4.10;1.47;;;11.90;99.90;;;;;;5072870;28;20067;-85
2022/07/28 01:50:56;;;;;;;4.55;1.63;;;11.90;99.90;;;;;;5072760;28;20312;-82
2022/07/28 01:53:24;;;;;;;3.15;1.50;;;11.80;99.90;;;;;;5073767;28;20044;-82
2022/07/28 01:55:51;;;;;;;3.30;1.50;;;11.90;99.90;;;;;;5073682;28;20036;-81
2022/07/28 01:58:23;;;;;;;3.15;1.10;;;11.90;99.90;;;;;;5056281;28;20048;-83
2022/07/28 02:00:50;;;;;;;2.88;1.35;;;11.90;99.90;;;;;;5072877;28;20416;-83
2022/07/28 02:03:18;;;;;;;2.03;1.17;;;12.30;99.90;;;;;;5073861;28;20044;-82
2022/07/28 02:05:49;;;;;;;2.15;1.30;;;11.90;99.90;;;;;;5072382;28;20412;-81
2022/07/28 02:08:17;;;;;;;5.63;1.58;;;12.60;99.90;;;;;;5056095;28;20489;-82
2022/07/28 02:11:38;;;;;;;4.47;1.48;;;11.80;99.90;;;;;;5073856;28;20098;-81
2022/07/28 02:13:31;;;;;;;4.90;1.40;;;11.80;99.90;;;;;;5073206;28;20049;-81
2022/07/28 02:15:57;;;;;;;3.85;1.60;;;11.80;99.90;;;;;;5073560;28;20064;-82
2022/07/28 02:18:24;;;;;;;2.17;1.30;;;11.70;99.90;;;;;;5056113;28;20098;-83
2022/07/28 02:20:50;;;;;;;4.90;1.67;;;11.70;99.90;;;;;;5055970;28;20091;-81
2022/07/28 02:23:17;;;;;;;3.65;1.55;;;11.60;99.90;;;;;;5073972;28;20056;-81
2022/07/28 02:25:43;;;;;;;3.28;1.52;;;11.70;99.90;;;;;;5072699;28;20392;-80
2022/07/28 02:28:10;;;;;;;2.97;1.48;;;11.60;99.90;;;;;;5073571;28;20100;-82
2022/07/28 02:31:02;;;;;;;3.03;1.63;;;11.70;99.90;;;;;;5056441;28;20093;-81
2022/07/28 02:33:28;;;;;;;2.15;1.25;;;11.60;99.90;;;;;;5072622;28;20055;-80
2022/07/28 02:35:59;;;;;;;4.60;1.85;;;11.60;99.90;;;;;;5073714;28;20040;-82
2022/07/28 02:38:28;;;;;;;2.58;1.35;;;11.60;99.90;;;;;;5073277;28;20826;-81
2022/07/28 02:40:59;;;;;;;2.75;1.30;;;11.60;99.90;;;;;;5073804;28;20097;-84
2022/07/28 02:43:30;;;;;;;4.03;1.60;;;11.50;99.90;;;;;;5073112;28;20102;-84
2022/07/28 02:46:00;;;;;;;2.25;1.25;;;11.60;99.90;;;;;;5055877;28;20048;-84
2022/07/28 02:48:29;;;;;;;2.10;1.38;;;11.60;99.90;;;;;;5073428;28;20036;-81
2022/07/28 02:50:57;;;;;;;4.70;1.50;;;11.50;99.90;;;;;;5072194;28;20044;-81
2022/07/28 02:53:24;;;;;;;3.58;1.40;;;11.50;99.90;;;;;;5072782;28;20397;-81
2022/07/28 02:55:51;;;;;;;2.63;1.40;;;11.50;99.90;;;;;;5071911;28;20516;-82
2022/07/28 02:58:19;;;;;;;3.00;1.40;;;11.50;99.90;;;;;;5072474;28;20400;-80
2022/07/28 03:00:47;;;;;;;3.10;1.50;;;11.80;99.90;;;;;;5072273;28;20049;-83
2022/07/28 03:03:15;;;;;;;3.08;1.60;;;11.40;99.90;;;;;;5073354;28;20496;-82
2022/07/28 03:05:42;;;;;;;3.67;1.40;;;11.40;99.90;;;;;;5072098;28;20047;-81
2022/07/28 03:08:08;;;;;;;2.78;1.50;;;11.40;99.90;;;;;;5075596;28;20055;-82
2022/07/28 03:10:33;;;;;;;4.05;1.52;;;11.30;99.90;;;;;;5059554;28;20087;-82
2022/07/28 03:12:59;;;;;;;2.67;1.65;;;11.30;99.90;;;;;;5076969;28;20075;-82
2022/07/28 03:15:25;;;;;;;3.58;1.63;;;11.30;99.90;;;;;;5076985;28;20052;-81
2022/07/28 03:17:50;;;;;;;2.35;1.42;;;11.50;99.90;;;;;;5076783;28;20037;-80
2022/07/28 03:20:16;;;;;;;2.53;1.17;;;11.20;99.90;;;;;;5059455;28;20086;-83
2022/07/28 03:22:42;;;;;;;3.15;1.27;;;11.20;99.90;;;;;;5076882;28;20433;-80
2022/07/28 03:25:19;;;;;;;2.42;1.42;;;11.20;99.90;;;;;;5075928;28;20059;-82
2022/07/28 03:27:49;;;;;;;2.70;1.65;;;11.20;99.90;;;;;;5076592;28;20040;-82
2022/07/28 03:30:18;;;;;;;4.82;1.63;;;11.10;99.90;;;;;;5076572;28;20048;-81
2022/07/28 03:32:51;;;;;;;2.67;1.50;;;11.10;99.90;;;;;;5076559;28;20040;-80
2022/07/28 03:35:17;;;;;;;3.15;1.42;;;11.10;99.90;;;;;;5076579;28;20096;-80
2022/07/28 03:38:12;;;;;;;8.32;1.42;;;11.10;99.90;;;;;;5076655;28;20163;-80
2022/07/28 03:40:38;;;;;;;4.63;1.35;;;11.00;99.90;;;;;;5077034;28;20067;-81
2022/07/28 03:43:07;;;;;;;2.15;1.40;;;11.00;99.90;;;;;;5076887;28;20045;-81
2022/07/28 03:45:33;;;;;;;3.42;1.58;;;10.90;99.90;;;;;;5075781;28;20037;-82
2022/07/28 03:47:59;;;;;;;2.22;1.45;;;10.90;99.90;;;;;;5076514;28;20040;-81
2022/07/28 03:50:27;;;;;;;6.25;1.65;;;10.90;99.90;;;;;;5076612;28;20048;-81
2022/07/28 03:52:53;;;;;;;2.55;1.40;;;10.90;99.90;;;;;;5075640;28;20045;-82
2022/07/28 03:55:20;;;;;;;3.17;1.63;;;10.90;99.90;;;;;;5076462;28;20045;-83
2022/07/28 03:57:46;;;;;;;1.95;1.30;;;10.90;99.90;;;;;;5076427;28;20062;-82
2022/07/28 04:00:13;;;;;;;4.90;2.05;;;10.80;99.90;;;;;;5075438;28;20477;-80
2022/07/28 04:02:45;;;;;;;4.05;1.83;;;10.80;99.90;;;;;;5075497;28;20462;-82
2022/07/28 04:05:12;;;;;;;3.72;1.67;;;10.80;99.90;;;;;;5076159;28;20098;-79
2022/07/28 04:07:38;;;;;;;;;;;10.80;99.90;;;;;;5076787;28;20095;-81
2022/07/28 04:10:06;;;;;;;5.93;1.83;;;10.80;99.90;;;;;;5076254;28;20019;-81
2022/07/28 04:13:03;;;;;;;2.65;1.52;;;10.80;99.90;;;;;;5075984;28;20052;-80
2022/07/28 04:15:30;;;;;;;2.67;1.60;;;10.80;99.90;;;;;;5074315;28;20480;-82
2022/07/28 04:17:56;;;;;;;;;;;10.80;99.90;;;;;;5075658;28;20047;-81
2022/07/28 04:20:23;;;;;;;3.33;1.48;;;10.70;99.90;;;;;;5075650;28;19920;-83
2022/07/28 04:22:49;;;;;;;2.03;1.45;;;10.80;99.90;;;;;;5074564;28;20097;-79
2022/07/28 04:25:18;;;;;;;4.35;1.60;;;10.80;99.90;;;;;;5075309;28;20059;-81
2022/07/28 04:27:44;;;;;;;5.63;1.98;;;10.70;99.90;;;;;;5075864;28;20094;-80
2022/07/28 04:30:16;;;;;;;3.08;1.90;;;11.20;99.90;;;;;;5075590;28;20060;-79
2022/07/28 04:32:46;;;;;;;4.43;1.60;;;11.00;99.90;;;;;;5075519;28;20041;-78
2022/07/28 04:35:13;;;;;;;3.65;1.92;;;11.10;99.90;;;;;;5075429;28;20051;-78
2022/07/28 04:37:39;;;;;;;4.78;1.73;;;10.80;99.90;;;;;;5074411;28;20056;-80
2022/07/28 04:40:07;;;;;;;4.53;2.28;;;10.90;99.90;;;;;;5074105;28;20049;-79
2022/07/28 04:42:33;;;;;;;2.95;1.75;;;10.90;99.90;;;;;;5057967;28;20051;-81
2022/07/28 04:44:58;;;;;;;7.20;2.20;;;10.90;99.90;;;;;;5075216;28;20051;-81
2022/07/28 04:47:24;;;;;;;5.15;1.98;;;11.00;99.90;;;;;;5074890;28;20040;-82
2022/07/28 04:49:51;;;;;;;3.10;1.67;;;11.00;99.90;;;;;;5057544;28;20044;-80
2022/07/28 04:52:17;;;;;;;3.70;1.90;;;11.50;99.90;;;;;;5057443;28;20408;-80
2022/07/28 04:54:43;;;;;;;3.17;1.90;;;11.00;99.90;;;;;;5075008;28;20102;-82
2022/07/28 04:57:10;;;;;;;3.15;1.90;;;11.00;99.90;;;;;;5074074;28;20278;-81
2022/07/28 04:59:36;;;;;;;3.70;1.90;;;11.10;99.90;;;;;;5075106;28;20045;-81
2022/07/28 05:02:02;;;;;;;5.70;2.00;;;11.10;99.90;;;;;;5073870;28;20110;-81
2022/07/28 05:04:28;;;;;;;4.15;2.38;;;11.10;99.90;;;;;;5074859;28;20051;-81
2022/07/28 05:06:53;;;;;;;4.05;2.13;;;11.10;99.90;;;;;;5074273;28;20053;-81
2022/07/28 05:09:19;;;;;;;5.78;2.00;;;11.00;99.90;;;;;;5073492;28;20044;-80
2022/07/28 05:11:45;;;;;;;4.20;2.08;;;11.10;99.90;;;;;;5074721;28;20059;-79
2022/07/28 05:14:10;;;;;;;5.45;2.15;;;11.10;99.90;;;;;;5074708;28;20094;-81
2022/07/28 05:16:36;;;;;;;3.35;2.05;;;11.10;99.90;;;;;;5057129;28;20067;-81
2022/07/28 05:19:02;;;;;;;4.00;2.33;;;11.10;99.90;;;;;;5074753;28;20048;-80
2022/07/28 05:21:28;;;;;;;4.03;2.20;;;11.10;99.90;;;;;;5074375;28;20036;-81
2022/07/28 05:23:54;;;;;;;4.18;2.03;;;11.30;99.90;;;;;;5075105;28;20048;-81
2022/07/28 05:26:19;;;;;;;5.40;2.10;;;11.10;99.90;;;;;;5074534;28;20070;-80
2022/07/28 05:28:45;;;;;;;5.60;2.40;;;11.20;99.90;;;;;;5073883;28;20036;-81
2022/07/28 05:31:11;;;;;;;4.63;2.92;;;11.20;99.90;;;;;;5074528;28;20102;-78
2022/07/28 05:33:37;;;;;;;3.53;1.77;;;11.30;99.90;;;;;;5074513;28;20080;-79
2022/07/28 05:36:03;;;;;;;4.05;1.83;;;11.30;99.90;;;;;;5074586;28;20078;-80
2022/07/28 05:38:30;;;;;;;6.82;1.90;;;11.30;99.90;;;;;;5074461;28;20055;-79
2022/07/28 05:40:56;;;;;;;3.70;1.60;;;11.40;99.90;;;;;;5073209;28;20067;-78
2022/07/28 05:43:22;;;;;;;2.35;1.40;;;11.50;99.90;;;;;;5074682;28;20085;-78
2022/07/28 05:45:48;;;;;;;2.85;1.70;;;11.40;99.90;;;;;;5074115;28;20057;-78
2022/07/28 05:48:17;;;;;;;3.05;1.45;;;11.50;99.90;;;;;;5074206;28;20036;-80
2022/07/28 05:50:43;;;;;;;6.80;1.75;;;11.60;99.90;;;;;;5074070;28;20378;-79
2022/07/28 05:53:08;;;;;;;3.88;1.65;;;12.20;99.90;;;;;;5074377;28;20085;-81
2022/07/28 05:55:34;;;;;;;3.85;1.75;;;11.90;99.90;;;;;;5074116;28;20143;-79
2022/07/28 05:57:59;;;;;;;4.65;1.58;;;12.10;99.90;;;;;;5074130;28;20040;-79
2022/07/28 06:00:25;;;;;;;8.05;2.20;;;12.30;99.90;;;;;;5074142;28;20044;-82
2022/07/28 06:02:51;;;;;;;4.25;1.58;;;12.70;99.90;;;;;;5074175;28;20127;-82
2022/07/28 06:05:19;;;;;;;6.43;1.73;;;12.80;99.90;;;;;;5074054;28;20439;-79
2022/07/28 06:07:46;;;;;;;5.28;2.28;;;13.20;99.90;;;;;;5073909;28;20055;-81
2022/07/28 06:10:16;;;;;;;3.78;1.92;;;13.30;99.90;;;;;;5074158;28;20049;-80
2022/07/28 06:12:47;;;;;;;5.15;1.80;;;13.70;99.90;;;;;;5074059;28;20049;-79
2022/07/28 06:15:15;;;;;;;2.47;1.38;;;13.90;99.90;;;;;;5074200;28;20117;-80
2022/07/28 06:17:40;;;;;;;6.90;1.40;;;14.30;99.90;;;;;;5073765;28;20505;-77
2022/07/28 06:20:07;;;;;;;1.93;1.10;;;14.60;99.90;;;;;;5073717;28;20055;-81
2022/07/28 06:22:43;;;;;;;6.90;1.88;;;14.70;99.90;;;;;;5073804;28;20037;-79
2022/07/28 06:25:20;;;;;;;4.38;1.27;;;15.00;99.90;;;;;;5074067;28;20041;-79
2022/07/28 06:27:51;;;;;;;1.88;1.10;;;15.00;99.90;;;;;;5075924;28;20036;-79
2022/07/28 06:30:16;;;;;;;6.75;1.30;;;15.20;99.90;;;;;;5076416;28;20056;-80
2022/07/28 06:32:43;;;;;;;6.20;1.30;;;15.20;99.90;;;;;;5075392;28;20049;-82
2022/07/28 06:35:10;;;;;;;6.45;1.23;;;15.30;99.90;;;;;;5074029;28;20084;-79
2022/07/28 06:37:36;;;;;;;2.80;0.98;;;15.30;99.90;;;;;;5073841;28;20049;-81
2022/07/28 06:40:03;;;;;;;4.73;1.53;;;15.40;99.90;;;;;;5074108;28;20075;-79
2022/07/28 06:42:28;;;;;;;4.05;0.93;;;15.40;99.90;;;;;;5077742;28;20045;-80
2022/07/28 06:44:54;;;;;;;1.95;0.82;;;15.50;99.90;;;;;;5077391;28;20190;-80
2022/07/28 06:47:19;;;;;;;1.85;1.00;;;15.50;99.90;;;;;;5077848;28;20048;-79
2022/07/28 06:49:45;;;;;;;2.97;1.00;;;15.60;99.90;;;;;;5077387;28;20388;-80
2022/07/28 06:52:11;;;;;;;3.53;1.10;;;15.90;99.90;;;;;;5075872;28;20063;-81
2022/07/28 06:54:37;;;;;;;8.00;0.95;;;15.90;99.90;;;;;;5076937;28;20074;-79
2022/07/28 06:57:03;;;;;;;1.97;0.70;;;16.00;99.90;;;;;;5075571;28;20615;-80
2022/07/28 06:59:29;;;;;;;4.18;0.80;;;16.20;99.90;;;;;;5076176;28;20082;-81
2022/07/28 07:02:00;;;;;;;2.88;0.85;;;16.20;99.90;;;;;;5076600;28;20040;-79
2022/07/28 07:04:28;;;;;;;2.60;0.82;;;16.30;99.90;;;;;;5075988;28;20095;-80
2022/07/28 07:06:54;;;;;;;1.63;0.75;;;16.40;99.90;;;;;;5076493;28;20095;-79
2022/07/28 07:09:20;;;;;;;1.37;0.67;;;16.30;99.90;;;;;;5076743;28;20481;-80
2022/07/28 07:11:45;;;;;;;2.40;0.70;;;16.50;99.90;;;;;;5075592;28;20055;-80
2022/07/28 07:14:11;;;;;;;2.53;0.97;;;16.50;99.90;;;;;;5075497;28;20044;-83
2022/07/28 07:16:36;;;;;;;2.87;1.30;;;16.50;99.90;;;;;;5075811;28;20095;-82
2022/07/28 07:19:02;;;;;;;4.77;1.00;;;16.60;99.90;;;;;;5076498;28;20468;-82
2022/07/28 07:21:28;;;;;;;2.67;1.00;;;16.50;99.90;;;;;;5076485;28;20041;-79
2022/07/28 07:23:54;;;;;;;3.40;1.00;;;16.60;99.90;;;;;;5076755;28;20047;-81
2022/07/28 07:26:20;;;;;;;1.83;1.17;;;16.60;99.90;;;;;;5076567;28;20097;-82
2022/07/28 07:28:45;;;;;;;4.23;0.90;;;16.60;99.90;;;;;;5076580;28;20032;-80
2022/07/28 07:31:11;;;;;;;2.57;0.93;;;16.70;99.90;;;;;;5077058;28;20048;-81
2022/07/28 07:33:36;;;;;;;2.43;0.83;;;16.70;99.90;;;;;;5076538;28;20481;-80
2022/07/28 07:36:02;;;;;;;2.83;1.30;;;16.70;99.90;;;;;;5077389;28;20037;-79
2022/07/28 07:38:28;;;;;;;1.33;0.67;;;16.80;99.90;;;;;;5075028;28;20505;-79
2022/07/28 07:40:53;;;;;;;2.77;0.77;;;16.80;99.90;;;;;;5076388;28;20059;-80
2022/07/28 07:43:19;;;;;;;2.92;0.60;;;16.90;99.90;;;;;;5075431;28;20491;-80
2022/07/28 07:45:44;;;;;;;2.23;0.80;;;17.10;99.90;;;;;;5093032;28;20171;-80
2022/07/28 07:48:10;;;;;;;1.57;0.70;;;17.00;99.90;;;;;;5076206;28;20507;-79
2022/07/28 07:50:37;;;;;;;2.90;0.67;;;17.10;99.90;;;;;;5076316;28;20070;-81
2022/07/28 07:53:03;;;;;;;2.72;0.77;;;17.30;99.90;;;;;;5057721;28;20131;-83
2022/07/28 07:55:30;;;;;;;3.20;1.03;;;17.50;99.90;;;;;;5076325;28;20137;-82
2022/07/28 07:57:56;;;;;;;3.78;0.60;;;17.80;99.90;;;;;;5091772;28;20044;-80
2022/07/28 08:00:22;;;;;;;1.40;0.70;;;17.80;99.90;;;;;;5075566;28;20507;-81
2022/07/28 08:02:48;;;;;;;1.67;0.80;;;18.00;99.90;;;;;;5074845;28;20044;-79
2022/07/28 08:05:14;;;;;;;2.00;0.70;;;18.20;99.90;;;;;;5076018;28;20501;-80
2022/07/28 08:07:40;;;;;;;2.27;0.70;;;18.40;99.90;;;;;;5075376;28;20121;-79
2022/07/28 08:10:06;;;;;;;2.00;0.67;;;18.40;99.90;;;;;;5076081;28;20287;-79
2022/07/28 08:12:32;;;;;;;1.75;0.70;;;18.50;99.90;;;;;;5074440;28;20050;-79
2022/07/28 08:14:57;;;;;;;3.00;0.83;;;18.40;99.90;;;;;;5075756;28;20120;-77
2022/07/28 08:17:23;;;;;;;3.03;0.63;;;18.60;99.90;;;;;;5076263;28;20477;-77
2022/07/28 08:19:48;;;;;;;2.63;0.70;;;18.70;99.90;;;;;;5075813;28;20040;-79
2022/07/28 08:22:14;;;;;;;2.57;1.33;;;18.70;99.90;;;;;;5074753;28;20500;-77
2022/07/28 08:24:41;;;;;;;3.57;1.10;;;18.80;99.90;;;;;;5075614;28;20489;-78
2022/07/28 08:27:06;;;;;;;2.67;1.02;;;18.70;99.90;;;;;;5075517;28;20048;-78
2022/07/28 08:29:32;;;;;;;1.50;0.60;;;18.80;99.90;;;;;;5075368;28;20039;-78
2022/07/28 08:32:01;;;;;;;1.20;0.60;;;18.60;99.90;;;;;;5075455;28;20049;-78
2022/07/28 08:34:27;;;;;;;0.95;0.65;;;18.60;99.90;;;;;;5074692;28;20400;-78
2022/07/28 08:36:53;;;;;;;3.03;0.60;;;18.50;99.90;;;;;;5075451;28;20052;-78
2022/07/28 08:39:18;;;;;;;1.80;0.80;;;18.40;99.90;;;;;;5075330;28;20385;-79
2022/07/28 08:42:03;;;;;;;3.77;0.70;;;18.30;99.90;;;;;;5074163;28;20044;-78
2022/07/28 08:44:44;;;;;;;1.45;0.60;;;18.20;99.90;;;;;;5075266;28;20084;-78
2022/07/28 08:47:11;;;;;;;4.65;1.42;;;18.30;99.90;;;;;;5075481;28;20048;-79
2022/07/28 08:49:39;;;;;;;2.47;0.75;;;18.40;99.90;;;;;;5075379;28;20052;-78
2022/07/28 08:52:05;;;;;;;1.65;0.60;;;18.60;99.90;;;;;;5075010;28;20079;-79
2022/07/28 08:54:31;;;;;;;1.83;0.73;;;18.70;99.90;;;;;;5074935;28;20553;-78
2022/07/28 08:56:58;;;;;;;1.77;0.83;;;18.80;99.90;;;;;;5074907;28;20131;-79
2022/07/28 08:59:24;;;;;;;1.08;0.50;;;18.90;99.90;;;;;;5074825;28;20036;-83
2022/07/28 09:01:51;;;;;;;1.70;0.63;;;19.00;99.90;;;;;;5073940;28;20051;-79
2022/07/28 09:04:18;;;;;;;2.63;0.80;;;19.10;99.90;;;;;;5073819;28;20385;-82
2022/07/28 09:06:45;;;;;;;4.88;1.10;;;19.20;99.90;;;;;;5073296;28;20135;-79
2022/07/28 09:09:10;;;;;;;2.75;1.05;;;19.30;99.90;;;;;;5074628;28;20060;-82
2022/07/28 09:11:37;;;;;;;2.60;0.80;;;19.50;99.90;;;;;;5057131;28;20503;-80
2022/07/28 09:14:03;;;;;;;3.55;0.70;;;19.50;99.90;;;;;;5074618;28;20044;-80
2022/07/28 09:16:29;;;;;;;5.25;1.40;;;19.70;99.90;;;;;;5074659;28;20113;-81
2022/07/28 09:18:55;;;;;;;4.47;0.85;;;19.80;99.90;;;;;;5074441;28;20497;-79
2022/07/28 09:21:21;;;;;;;3.53;0.70;;;19.80;99.60;;;;;;5074705;28;20151;-79
2022/07/28 09:23:48;;;;;;;3.13;0.97;;;19.80;99.90;;;;;;5074356;28;20495;-78
2022/07/28 09:26:17;;;;;;;1.65;0.60;;;19.70;99.20;;;;;;5074406;28;20045;-79
2022/07/28 09:28:54;;;;;;;3.10;0.90;;;19.60;99.00;;;;;;5074465;28;20496;-82
2022/07/28 09:31:21;;;;;;;2.40;0.90;;;19.70;98.30;;;;;;5074272;28;20131;-84
2022/07/28 09:34:04;;;;;;;2.17;0.85;;;20.00;98.70;;;;;;5074385;28;20325;-82
2022/07/28 09:36:37;;;;;;;1.30;0.70;;;20.00;97.30;;;;;;5074123;28;20523;-82
2022/07/28 09:39:03;;;;;;;3.25;1.00;;;20.00;97.50;;;;;;5073514;28;20090;-84
2022/07/28 09:41:48;;;;;;;1.47;0.70;;;19.90;97.70;;;;;;5072961;28;20083;-81
2022/07/28 09:44:18;;;;;;;3.75;0.80;;;19.80;97.20;;;;;;5056502;28;20477;-82
2022/07/28 09:46:44;;;;;;;3.58;1.08;;;19.70;97.90;;;;;;5056240;28;20048;-83
2022/07/28 09:49:09;;;;;;;2.80;0.70;;;19.70;98.00;;;;;;5056902;28;20038;-78
2022/07/28 09:51:35;;;;;;;1.20;0.70;;;19.70;97.90;;;;;;5073104;28;20044;-85
2022/07/28 09:54:12;;;;;;;5.43;1.17;;;19.70;98.10;;;;;;5072731;28;20044;-83
2022/07/28 09:56:44;;;;;;;2.40;0.80;;;19.80;97.40;;;;;;5072663;28;20037;-81
2022/07/28 09:59:11;;;;;;;2.97;0.80;;;20.00;97.40;;;;;;5073713;28;20168;-81
2022/07/28 10:01:48;;;;;;;;;;;20.10;97.30;;;;;;5074323;28;20071;-81
2022/07/28 10:04:14;;;;;;;2.15;0.80;;;20.20;95.40;;;;;;5073521;28;20387;-80
2022/07/28 10:06:40;;;;;;;3.33;0.90;;;20.30;96.90;;;;;;5072641;28;20052;-80
2022/07/28 10:09:13;;;;;;;1.20;0.70;;;20.40;96.50;;;;;;5073957;28;20131;-80
2022/07/28 10:11:38;;;;;;;3.40;0.77;;;20.50;96.40;;;;;;5073999;28;20044;-80
2022/07/28 10:14:05;;;;;;;1.90;0.80;;;20.70;95.90;;;;;;5073760;28;20076;-82
2022/07/28 10:16:40;;;;;;;3.17;0.80;;;20.90;96.00;;;;;;5073866;28;20048;-81
2022/07/28 10:19:06;;;;;;;4.68;0.73;;;21.00;94.90;;;;;;5072633;28;20044;-79
2022/07/28 10:21:37;;;;;;;3.00;1.00;;;21.20;95.10;;;;;;5073399;28;20067;-79
2022/07/28 10:24:07;;;;;;;3.35;0.70;;;21.20;94.10;;;;;;5074020;28;20087;-78
2022/07/28 10:26:41;;;;;;;3.03;0.73;;;21.10;95.10;;;;;;5056210;28;20054;-77
2022/07/28 10:29:11;;;;;;;3.13;0.85;;;20.90;93.90;;;;;;5073581;28;20040;-81
2022/07/28 10:31:47;;;;;;;1.88;0.80;;;20.80;94.40;;;;;;5073881;28;20088;-78
2022/07/28 10:34:24;;;;;;;3.80;1.10;;;20.60;95.40;;;;;;5073824;28;20056;-79
2022/07/28 10:36:53;;;;;;;1.55;0.77;;;20.60;95.30;;;;;;5073807;28;20484;-79
2022/07/28 10:39:21;;;;;;;2.05;0.80;;;20.50;94.80;;;;;;5073887;28;20166;-76
2022/07/28 10:41:47;;;;;;;2.72;0.90;;;20.50;94.80;;;;;;5073901;28;20084;-78
2022/07/28 10:44:13;;;;;;;4.03;0.98;;;20.40;94.50;;;;;;5072713;28;20048;-79
2022/07/28 10:46:42;;;;;;;3.27;1.17;;;20.50;94.70;;;;;;5073835;28;20045;-83
2022/07/28 10:49:09;;;;;;;2.03;1.00;;;20.50;95.20;;;;;;5072621;28;20040;-80
2022/07/28 10:51:40;;;;;;;4.15;1.00;;;20.60;94.60;;;;;;5056259;28;20408;-83
2022/07/28 10:54:28;;;;;;;3.03;1.00;;;20.80;94.50;;;;;;5055623;28;20080;-82
2022/07/28 10:57:02;;;;;;;2.35;0.82;;;20.90;93.60;;;;;;5071911;28;20060;-80
2022/07/28 11:00:09;;;;;;;2.60;0.80;;;21.00;94.30;;;;;;5071227;28;20052;-82
2022/07/28 11:02:59;;;;;;;4.45;1.10;;;21.00;93.90;;;;;;5072235;28;20044;-79
2022/07/28 11:05:37;;;;;;;1.98;0.85;;;21.10;94.80;;;;;;5072275;28;20400;-80
2022/07/28 11:08:26;;;;;;;4.07;1.20;;;21.20;94.30;;;;;;5073382;28;20060;-80
2022/07/28 11:10:53;;;;;;;2.33;0.88;;;21.40;92.60;;;;;;5072442;28;20041;-81
2022/07/28 11:13:28;;;;;;;1.95;0.80;;;21.50;93.30;;;;;;5073406;28;20044;-80
2022/07/28 11:15:56;;;;;;;2.08;0.90;;;21.50;91.90;;;;;;5071988;28;20040;-82
2022/07/28 11:18:22;;;;;;;2.53;0.90;;;21.40;92.90;;;;;;5071970;28;20044;-82
2022/07/28 11:20:56;;;;;;;2.45;0.90;;;21.40;93.60;;;;;;5072212;28;20036;-82
2022/07/28 11:23:40;;;;;;;4.32;1.23;;;21.30;92.60;;;;;;5072758;28;20103;-86
2022/07/28 11:26:33;;;;;;;4.45;1.00;;;21.20;92.20;;;;;;5072388;28;20055;-86
2022/07/28 11:28:59;;;;;;;2.72;0.98;;;21.10;93.50;;;;;;5058701;28;20131;-88
2022/07/28 11:31:42;;;;;;;4.00;0.77;;;21.40;93.10;;;;;;5075194;28;20127;-87
2022/07/28 11:34:14;;;;;;;5.93;1.00;;;21.20;91.80;;;;;;5074268;28;20127;-87
2022/07/28 11:37:01;;;;;;;2.13;0.80;;;21.20;92.80;;;;;;5058960;28;20056;-81
2022/07/28 11:39:28;;;;;;;2.63;0.93;;;21.40;93.00;;;;;;5075329;28;20044;-84
2022/07/28 11:41:53;;;;;;;2.95;0.90;;;21.50;92.90;;;;;;5058895;28;20373;-84
2022/07/28 11:44:30;;;;;;;2.57;1.00;;;21.90;93.20;;;;;;5059048;28;20048;-81
2022/07/28 11:47:16;;;;;;;1.88;0.70;;;22.00;92.30;;;;;;5076563;28;20048;-78
2022/07/28 11:49:42;;;;;;;2.80;0.80;;;22.20;91.10;;;;;;5075102;28;20040;-81
2022/07/28 11:52:19;;;;;;;2.03;0.70;;;22.10;91.30;;;;;;5076399;28;20095;-80
2022/07/28 11:54:50;;;;;;;2.05;0.90;;;22.10;91.30;;;;;;5076560;28;20048;-80
2022/07/28 11:57:18;;;;;;;3.22;0.88;;;22.00;91.30;;;;;;5076801;28;20041;-80
2022/07/28 11:59:46;;;;;;;2.45;0.80;;;22.00;92.10;;;;;;5075448;28;20048;-81
2022/07/28 12:02:16;;;;;;;5.40;1.27;;;22.20;92.20;;;;;;5076280;28;20052;-81
2022/07/28 12:04:42;;;;;;;4.07;0.98;;;22.40;91.30;;;;;;5076189;28;20131;-81
2022/07/28 12:07:09;;;;;;;2.27;0.90;;;22.60;91.60;;;;;;5074705;28;20512;-81
2022/07/28 12:09:36;;;;;;;3.47;0.90;;;22.90;90.80;;;;;;5076281;28;20131;-81
2022/07/28 12:12:05;;;;;;;3.45;0.90;;;23.00;90.70;;;;;;5076265;28;20131;-80
2022/07/28 12:14:37;;;;;;;2.08;0.68;;;23.00;90.90;;;;;;5076599;28;20052;-81
2022/07/28 12:17:03;;;;;;;2.90;0.80;;;23.10;90.10;;;;;;5076167;28;20040;-79
2022/07/28 12:19:30;;;;;;;2.77;0.97;;;22.90;89.90;;;;;;5075755;28;20043;-78
2022/07/28 12:21:56;;;;;;;4.80;0.80;;;22.80;90.50;;;;;;5075583;28;20048;-80
2022/07/28 12:24:33;;;;;;;2.27;0.80;;;22.90;89.30;;;;;;5075632;28;20040;-80
2022/07/28 12:26:59;;;;;;;2.83;0.90;;;23.10;90.30;;;;;;5075616;28;20053;-78
2022/07/28 12:29:30;;;;;;;2.60;0.88;;;23.20;90.10;;;;;;5075476;28;20044;-79
2022/07/28 12:32:08;;;;;;;3.05;0.90;;;23.20;90.70;;;;;;5075447;28;20106;-80
2022/07/28 12:34:35;;;;;;;1.48;0.85;;;23.10;90.40;;;;;;5075788;28;20048;-80
2022/07/28 12:37:04;;;;;;;4.28;0.85;;;22.80;90.40;;;;;;5075682;28;20044;-80
2022/07/28 12:39:38;;;;;;;2.00;0.90;;;22.60;91.00;;;;;;5074936;28;20503;-80
2022/07/28 12:42:06;;;;;;;2.20;0.90;;;22.60;91.70;;;;;;5057741;28;20051;-81
2022/07/28 12:44:43;;;;;;;9.38;0.90;;;22.70;90.70;;;;;;5073962;28;20059;-81
2022/07/28 12:47:10;;;;;;;;;;;22.90;91.90;;;;;;5075586;28;20040;-79
2022/07/28 12:49:37;;;;;;;6.83;1.23;;;22.90;90.00;;;;;;5057143;28;19924;-79
2022/07/28 12:52:19;;;;;;;;;;;22.80;90.20;;;;;;5075507;28;20048;-80
2022/07/28 12:54:45;;;;;;;2.75;0.80;;;22.60;90.40;;;;;;5074041;28;19920;-80
2022/07/28 12:57:10;;;;;;;3.88;1.20;;;22.40;90.20;;;;;;5074813;28;20546;-79
2022/07/28 12:59:37;;;;;;;2.13;0.70;;;22.40;90.70;;;;;;5074834;28;20095;-79